createdAt,value
2018-10-11T00:00:30.033Z,11.00
2018-10-11T00:02:58.355Z,11.00
2018-10-11T00:05:26.682Z,11.10
2018-10-11T00:07:54.993Z,11.00
2018-10-11T00:10:23.737Z,10.90
2018-10-11T00:12:52.045Z,10.70
2018-10-11T00:15:20.383Z,10.50
2018-10-11T00:17:48.768Z,10.50
2018-10-11T00:20:17.094Z,10.50
2018-10-11T00:22:45.425Z,10.50
2018-10-11T00:25:13.747Z,10.50
2018-10-11T00:27:42.061Z,10.50
2018-10-11T00:30:10.381Z,10.60
2018-10-11T00:32:38.833Z,10.60
2018-10-11T00:35:07.453Z,10.40
2018-10-11T00:37:35.791Z,10.30
2018-10-11T00:40:04.957Z,10.40
2018-10-11T00:42:33.264Z,10.30
2018-10-11T00:45:02.334Z,10.20
2018-10-11T00:47:30.664Z,10.10
2018-10-11T00:49:59.001Z,10.10
2018-10-11T00:52:27.309Z,10.20
2018-10-11T00:54:55.629Z,10.20
2018-10-11T00:57:23.954Z,10.00
2018-10-11T00:59:52.284Z,9.90
2018-10-11T01:02:20.581Z,9.80
2018-10-11T01:04:48.913Z,9.70
2018-10-11T01:07:17.230Z,9.70
2018-10-11T01:09:45.544Z,9.60
2018-10-11T01:12:13.845Z,9.60
2018-10-11T01:14:42.183Z,9.50
2018-10-11T01:17:10.502Z,9.60
2018-10-11T01:19:38.821Z,9.80
2018-10-11T01:22:07.188Z,9.80
2018-10-11T01:24:35.569Z,9.90
2018-10-11T01:27:03.894Z,9.80
2018-10-11T01:29:32.225Z,9.90
2018-10-11T01:32:00.559Z,9.90
2018-10-11T01:34:28.985Z,10.00
2018-10-11T01:36:57.308Z,9.80
2018-10-11T01:39:25.761Z,9.80
2018-10-11T01:41:54.113Z,9.80
2018-10-11T01:44:22.507Z,9.80
2018-10-11T01:46:50.846Z,9.90
2018-10-11T01:49:19.156Z,9.80
2018-10-11T01:51:47.485Z,9.90
2018-10-11T01:54:15.789Z,10.00
2018-10-11T01:56:45.945Z,9.90
2018-10-11T01:59:14.213Z,9.90
2018-10-11T02:01:42.541Z,9.70
2018-10-11T02:04:10.854Z,9.70
2018-10-11T02:06:39.204Z,9.70
2018-10-11T02:09:07.525Z,9.70
2018-10-11T02:11:35.858Z,9.70
2018-10-11T02:14:04.201Z,9.60
2018-10-11T02:16:32.545Z,9.70
2018-10-11T02:19:00.853Z,9.70
2018-10-11T02:21:29.213Z,9.60
2018-10-11T02:23:57.513Z,9.40
2018-10-11T02:26:25.845Z,9.30
2018-10-11T02:28:54.201Z,9.30
2018-10-11T02:31:22.624Z,9.30
2018-10-11T02:33:50.930Z,9.30
2018-10-11T02:36:19.256Z,9.30
2018-10-11T02:38:47.586Z,9.30
2018-10-11T02:41:15.903Z,9.30
2018-10-11T02:43:44.310Z,9.30
2018-10-11T02:46:12.658Z,9.30
2018-10-11T02:48:40.968Z,9.20
2018-10-11T02:51:09.294Z,9.10
2018-10-11T02:53:37.620Z,9.20
2018-10-11T02:56:06.713Z,9.20
2018-10-11T02:58:46.250Z,9.20
2018-10-11T03:01:14.653Z,9.10
2018-10-11T03:03:42.987Z,9.10
2018-10-11T03:06:11.593Z,9.10
2018-10-11T03:08:39.950Z,9.00
2018-10-11T03:11:08.334Z,9.00
2018-10-11T03:13:36.642Z,9.00
2018-10-11T03:16:05.001Z,9.20
2018-10-11T03:18:33.308Z,9.20
2018-10-11T03:21:01.668Z,9.10
2018-10-11T03:23:30.037Z,9.00
2018-10-11T03:25:58.416Z,9.00
2018-10-11T03:28:26.725Z,9.00
2018-10-11T03:30:55.041Z,9.00
2018-10-11T03:33:23.448Z,8.90
2018-10-11T03:35:51.810Z,8.80
2018-10-11T03:38:20.314Z,8.60
2018-10-11T03:40:48.609Z,8.60
2018-10-11T03:43:17.061Z,8.50
2018-10-11T03:45:45.361Z,8.30
2018-10-11T03:48:13.693Z,8.30
2018-10-11T03:50:41.988Z,8.20
2018-10-11T03:53:10.309Z,8.20
2018-10-11T03:55:38.644Z,8.20
2018-10-11T03:58:07.021Z,8.30
2018-10-11T04:00:35.393Z,8.20
2018-10-11T04:03:03.780Z,8.10
2018-10-11T04:05:32.101Z,8.10
2018-10-11T04:08:00.418Z,8.10
2018-10-11T04:10:28.814Z,8.10
2018-10-11T04:12:57.188Z,8.20
2018-10-11T04:15:25.529Z,8.40
2018-10-11T04:17:53.869Z,8.50
2018-10-11T04:20:22.494Z,8.40
2018-10-11T04:22:50.808Z,8.30
2018-10-11T04:25:19.182Z,8.30
2018-10-11T04:27:47.560Z,8.20
2018-10-11T04:30:15.953Z,8.20
2018-10-11T04:32:44.284Z,8.20
2018-10-11T04:35:12.818Z,8.10
2018-10-11T04:37:41.486Z,8.10
2018-10-11T04:40:09.783Z,8.20
2018-10-11T04:42:38.196Z,8.20
2018-10-11T04:45:06.616Z,8.20
2018-10-11T04:47:34.962Z,8.20
2018-10-11T04:50:03.283Z,8.10
2018-10-11T04:52:31.622Z,8.00
2018-10-11T04:54:59.916Z,8.00
2018-10-11T04:57:28.239Z,8.00
2018-10-11T04:59:56.576Z,8.00
2018-10-11T05:02:24.922Z,8.00
2018-10-11T05:04:53.227Z,8.00
2018-10-11T05:07:21.564Z,8.10
2018-10-11T05:09:49.877Z,8.00
2018-10-11T05:12:18.265Z,7.80
2018-10-11T05:14:46.645Z,7.80
2018-10-11T05:17:15.033Z,7.80
2018-10-11T05:19:43.380Z,7.70
2018-10-11T05:22:11.692Z,7.80
2018-10-11T05:24:40.072Z,7.80
2018-10-11T05:27:08.422Z,7.90
2018-10-11T05:29:36.745Z,7.80
2018-10-11T05:32:05.166Z,7.80
2018-10-11T05:34:33.445Z,8.00
2018-10-11T05:37:01.754Z,7.90
2018-10-11T05:39:30.325Z,7.80
2018-10-11T05:41:59.069Z,7.60
2018-10-11T05:44:27.547Z,7.50
2018-10-11T05:46:55.945Z,7.40
2018-10-11T05:49:24.347Z,7.40
2018-10-11T05:51:52.709Z,7.40
2018-10-11T05:54:21.112Z,7.30
2018-10-11T05:56:50.382Z,7.30
2018-10-11T05:59:18.774Z,7.30
2018-10-11T06:01:47.095Z,7.40
2018-10-11T06:04:15.500Z,7.30
2018-10-11T06:06:46.890Z,7.30
2018-10-11T06:09:15.281Z,7.40
2018-10-11T06:11:44.435Z,7.50
2018-10-11T06:14:13.453Z,7.40
2018-10-11T06:16:41.862Z,7.50
2018-10-11T06:19:11.459Z,7.60
2018-10-11T06:21:39.816Z,7.70
2018-10-11T06:24:08.204Z,7.70
2018-10-11T06:26:36.557Z,7.80
2018-10-11T06:29:04.904Z,7.80
2018-10-11T06:31:33.329Z,7.90
2018-10-11T06:34:01.714Z,7.90
2018-10-11T06:36:30.184Z,8.10
2018-10-11T06:38:59.181Z,8.20
2018-10-11T06:41:27.945Z,8.20
2018-10-11T06:43:56.792Z,8.30
2018-10-11T06:46:25.161Z,8.50
2018-10-11T06:48:53.550Z,8.60
2018-10-11T06:51:21.994Z,8.70
2018-10-11T06:53:50.800Z,8.70
2018-10-11T06:56:19.509Z,8.70
2018-10-11T06:58:47.848Z,8.80
2018-10-11T07:01:16.177Z,9.00
2018-10-11T07:03:44.491Z,9.20
2018-10-11T07:06:12.842Z,9.80
2018-10-11T07:08:41.151Z,10.50
2018-10-11T07:11:09.563Z,10.80
2018-10-11T07:13:37.936Z,10.80
2018-10-11T07:16:06.261Z,10.50
2018-10-11T07:18:34.569Z,10.60
2018-10-11T07:21:02.894Z,10.60
2018-10-11T07:23:31.200Z,10.70
2018-10-11T07:25:59.594Z,10.80
2018-10-11T07:28:27.861Z,10.80
2018-10-11T07:30:56.181Z,11.10
2018-10-11T07:33:24.860Z,11.40
2018-10-11T07:35:53.181Z,11.60
2018-10-11T07:38:21.486Z,11.80
2018-10-11T07:40:49.871Z,12.00
2018-10-11T07:43:18.176Z,12.20
2018-10-11T07:45:46.519Z,12.40
2018-10-11T07:48:14.829Z,12.70
2018-10-11T07:50:43.157Z,13.00
2018-10-11T07:53:11.470Z,13.20
2018-10-11T07:55:39.833Z,13.20
2018-10-11T07:58:08.143Z,13.30
2018-10-11T08:00:36.461Z,13.30
2018-10-11T08:03:04.769Z,13.60
2018-10-11T08:05:33.121Z,13.70
2018-10-11T08:08:01.424Z,13.90
2018-10-11T08:10:29.793Z,13.90
2018-10-11T08:12:58.110Z,14.00
2018-10-11T08:15:26.454Z,14.00
2018-10-11T08:17:55.005Z,14.00
2018-10-11T08:20:23.161Z,14.00
2018-10-11T08:22:51.429Z,14.00
2018-10-11T08:25:19.918Z,14.10
2018-10-11T08:27:48.086Z,14.30
2018-10-11T08:30:16.434Z,14.20
2018-10-11T08:32:44.762Z,14.40
2018-10-11T08:35:13.089Z,14.50
2018-10-11T08:37:41.453Z,14.60
2018-10-11T08:40:09.740Z,14.60
2018-10-11T08:42:38.060Z,14.60
2018-10-11T08:45:06.786Z,14.70
2018-10-11T08:47:35.134Z,15.00
2018-10-11T08:50:03.507Z,15.40
2018-10-11T08:52:31.821Z,15.80
2018-10-11T08:55:00.253Z,16.10
2018-10-11T08:57:28.673Z,16.20
2018-10-11T08:59:56.994Z,16.20
2018-10-11T09:02:25.321Z,16.20
2018-10-11T09:04:53.633Z,16.10
2018-10-11T09:07:21.960Z,16.00
2018-10-11T09:09:53.634Z,15.80
2018-10-11T09:12:18.641Z,15.80
2018-10-11T09:14:46.949Z,15.80
2018-10-11T09:17:15.302Z,16.20
2018-10-11T09:19:43.673Z,16.40
2018-10-11T09:22:12.058Z,16.50
2018-10-11T09:24:40.394Z,16.30
2018-10-11T09:27:08.762Z,16.60
2018-10-11T09:29:37.066Z,17.00
2018-10-11T09:32:05.413Z,17.20
2018-10-11T09:34:33.717Z,17.40
2018-10-11T09:37:02.074Z,17.90
2018-10-11T09:39:30.404Z,18.00
2018-10-11T09:41:58.733Z,18.30
2018-10-11T09:44:27.329Z,18.50
2018-10-11T09:46:55.661Z,18.50
2018-10-11T09:49:23.962Z,18.60
2018-10-11T09:51:52.325Z,18.50
2018-10-11T09:54:20.650Z,18.60
2018-10-11T09:57:38.945Z,18.30
2018-10-11T10:00:14.211Z,18.30
2018-10-11T10:02:42.532Z,18.20
2018-10-11T10:05:10.856Z,18.10
2018-10-11T10:07:39.426Z,18.10
2018-10-11T10:10:07.982Z,18.30
2018-10-11T10:12:36.333Z,18.30
2018-10-11T10:15:04.812Z,18.30
2018-10-11T10:17:33.236Z,18.40
2018-10-11T10:20:01.561Z,18.40
2018-10-11T10:22:29.901Z,18.70
2018-10-11T10:24:58.462Z,18.60
2018-10-11T10:27:26.848Z,18.70
2018-10-11T10:29:55.116Z,18.80
2018-10-11T10:32:23.441Z,18.90
2018-10-11T10:34:51.745Z,18.90
2018-10-11T10:37:20.156Z,19.00
2018-10-11T10:39:48.509Z,19.10
2018-10-11T10:42:16.811Z,19.00
2018-10-11T10:44:45.174Z,18.90
2018-10-11T10:47:13.499Z,19.00
2018-10-11T10:49:41.808Z,19.20
2018-10-11T10:52:10.121Z,19.20
2018-10-11T10:54:38.453Z,19.20
2018-10-11T10:57:07.069Z,19.30
2018-10-11T10:59:35.405Z,19.20
2018-10-11T11:02:03.724Z,19.30
2018-10-11T11:04:32.057Z,19.30
2018-10-11T11:07:00.374Z,19.60
2018-10-11T11:09:28.700Z,19.90
2018-10-11T11:11:57.037Z,19.80
2018-10-11T11:14:25.358Z,19.80
2018-10-11T11:16:53.665Z,19.90
2018-10-11T11:19:22.077Z,19.90
2018-10-11T11:21:50.398Z,19.80
2018-10-11T11:24:18.730Z,19.60
2018-10-11T11:26:47.049Z,19.70
2018-10-11T11:29:15.381Z,20.10
2018-10-11T11:31:43.685Z,20.50
2018-10-11T11:34:12.024Z,21.20
2018-10-11T11:36:40.358Z,21.60
2018-10-11T11:39:09.544Z,21.80
2018-10-11T11:41:37.964Z,21.90
2018-10-11T11:44:06.422Z,21.30
2018-10-11T11:46:34.853Z,20.90
2018-10-11T11:49:03.210Z,21.20
2018-10-11T11:51:31.529Z,21.20
2018-10-11T11:53:59.852Z,20.70
2018-10-11T11:56:28.183Z,20.30
2018-10-11T11:58:56.510Z,20.20
2018-10-11T12:01:24.852Z,20.10
2018-10-11T12:03:53.181Z,20.00
2018-10-11T12:06:21.556Z,20.00
2018-10-11T12:08:49.915Z,19.70
2018-10-11T12:11:18.217Z,19.60
2018-10-11T12:13:46.541Z,19.60
2018-10-11T12:16:14.851Z,19.90
2018-10-11T12:18:43.177Z,20.20
2018-10-11T12:21:11.490Z,20.30
2018-10-11T12:23:39.798Z,20.20
2018-10-11T12:26:08.141Z,20.20
2018-10-11T12:28:36.620Z,20.30
2018-10-11T12:31:04.840Z,20.60
2018-10-11T12:33:33.146Z,20.80
2018-10-11T12:36:01.478Z,21.10
2018-10-11T12:38:29.804Z,21.40
2018-10-11T12:40:58.127Z,21.50
2018-10-11T12:43:26.445Z,21.60
2018-10-11T12:45:54.768Z,21.70
2018-10-11T12:48:23.072Z,21.60
2018-10-11T12:50:51.388Z,21.60
2018-10-11T12:53:19.713Z,21.40
2018-10-11T12:55:48.041Z,21.50
2018-10-11T12:58:16.354Z,21.50
2018-10-11T13:00:44.815Z,21.30
2018-10-11T13:03:13.144Z,21.50
2018-10-11T13:05:41.464Z,21.80
2018-10-11T13:08:09.905Z,21.90
2018-10-11T13:10:38.246Z,21.70
2018-10-11T13:13:06.745Z,21.60
2018-10-11T13:15:34.912Z,21.50
2018-10-11T13:18:03.210Z,21.50
2018-10-11T13:20:31.551Z,21.80
2018-10-11T13:22:59.993Z,21.70
2018-10-11T13:25:28.261Z,21.60
2018-10-11T13:27:56.581Z,21.40
2018-10-11T13:30:25.033Z,21.20
2018-10-11T13:32:53.364Z,21.10
2018-10-11T13:35:21.750Z,20.90
2018-10-11T13:37:50.002Z,20.70
2018-10-11T13:40:18.318Z,20.70
2018-10-11T13:42:46.618Z,20.90
2018-10-11T13:45:18.010Z,21.00
2018-10-11T13:47:46.367Z,21.10
2018-10-11T13:50:14.756Z,21.20
2018-10-11T13:52:43.066Z,21.40
2018-10-11T13:55:14.192Z,21.60
2018-10-11T13:57:39.726Z,21.50
2018-10-11T14:00:08.457Z,21.50
2018-10-11T14:02:37.000Z,21.30
2018-10-11T14:05:05.750Z,21.20
2018-10-11T14:07:34.243Z,21.10
2018-10-11T14:10:02.719Z,21.00
2018-10-11T14:12:31.081Z,21.00
2018-10-11T14:14:59.828Z,21.10
2018-10-11T14:17:28.173Z,21.00
2018-10-11T14:19:56.485Z,21.00
2018-10-11T14:22:24.814Z,21.00
2018-10-11T14:24:53.128Z,21.00
2018-10-11T14:27:21.445Z,21.00
2018-10-11T14:29:49.740Z,20.90
2018-10-11T14:32:18.148Z,20.90
2018-10-11T14:34:46.448Z,20.90
2018-10-11T14:37:15.092Z,20.80
2018-10-11T14:39:43.153Z,20.70
2018-10-11T14:42:11.593Z,20.70
2018-10-11T14:44:39.883Z,20.70
2018-10-11T14:47:08.222Z,20.60
2018-10-11T14:49:37.337Z,20.70
2018-10-11T14:52:06.004Z,20.80
2018-10-11T14:54:34.899Z,20.80
2018-10-11T14:57:04.524Z,20.80
2018-10-11T14:59:32.826Z,20.90
2018-10-11T15:02:01.430Z,20.80
2018-10-11T15:04:29.997Z,20.80
2018-10-11T15:06:58.307Z,20.80
2018-10-11T15:09:26.604Z,20.70
2018-10-11T15:11:54.938Z,20.70
2018-10-11T15:14:23.509Z,20.70
2018-10-11T15:16:51.854Z,20.70
2018-10-11T15:19:25.431Z,20.50
2018-10-11T15:21:53.762Z,20.70
2018-10-11T15:24:22.063Z,20.70
2018-10-11T15:26:50.385Z,20.60
2018-10-11T15:29:18.702Z,20.70
2018-10-11T15:31:47.022Z,20.80
2018-10-11T15:34:15.368Z,20.60
2018-10-11T15:36:43.693Z,20.80
2018-10-11T15:39:13.030Z,20.80
2018-10-11T15:41:41.631Z,20.80
2018-10-11T15:44:10.808Z,20.70
2018-10-11T15:46:39.284Z,20.60
2018-10-11T15:49:08.282Z,20.50
2018-10-11T15:51:36.608Z,20.60
2018-10-11T15:54:04.982Z,20.60
2018-10-11T15:56:33.313Z,20.50
2018-10-11T15:59:01.634Z,20.50
2018-10-11T16:01:30.471Z,20.40
2018-10-11T16:03:59.667Z,20.30
2018-10-11T16:06:27.973Z,20.20
2018-10-11T16:08:56.311Z,20.00
2018-10-11T16:11:24.625Z,19.90
2018-10-11T16:13:53.067Z,19.70
2018-10-11T16:16:21.421Z,19.60
2018-10-11T16:18:49.749Z,19.50
2018-10-11T16:21:18.081Z,19.40
2018-10-11T16:23:46.408Z,19.40
2018-10-11T16:26:14.761Z,19.20
2018-10-11T16:28:43.129Z,19.20
2018-10-11T16:31:11.447Z,19.10
2018-10-11T16:33:39.799Z,19.20
2018-10-11T16:36:08.140Z,19.10
2018-10-11T16:38:36.473Z,19.00
2018-10-11T16:41:04.849Z,18.80
2018-10-11T16:43:33.309Z,18.70
2018-10-11T16:46:01.628Z,18.50
2018-10-11T16:48:29.963Z,18.50
2018-10-11T16:50:58.289Z,18.40
2018-10-11T16:53:26.634Z,18.20
2018-10-11T16:55:54.941Z,18.10
2018-10-11T16:58:23.271Z,17.80
2018-10-11T17:00:51.870Z,17.60
2018-10-11T17:03:20.466Z,17.40
2018-10-11T17:05:48.770Z,17.20
2018-10-11T17:08:17.088Z,17.10
2018-10-11T17:10:45.400Z,16.90
2018-10-11T17:13:13.853Z,16.80
2018-10-11T17:15:42.198Z,16.70
2018-10-11T17:18:10.549Z,16.60
2018-10-11T17:20:38.865Z,16.50
2018-10-11T17:23:07.202Z,16.30
2018-10-11T17:25:35.565Z,16.30
2018-10-11T17:28:03.921Z,16.20
2018-10-11T17:30:32.221Z,16.10
2018-10-11T17:33:00.552Z,16.00
2018-10-11T17:35:28.862Z,15.90
2018-10-11T17:37:57.217Z,15.80
2018-10-11T17:40:25.536Z,15.80
2018-10-11T17:42:53.879Z,15.80
2018-10-11T17:45:22.221Z,15.70
2018-10-11T17:47:50.541Z,15.70
2018-10-11T17:50:18.927Z,15.60
2018-10-11T17:52:47.180Z,15.60
2018-10-11T17:55:15.533Z,15.50
2018-10-11T17:57:43.841Z,15.40
2018-10-11T18:00:12.229Z,15.40
2018-10-11T18:02:40.550Z,15.40
2018-10-11T18:05:08.874Z,15.30
2018-10-11T18:07:37.285Z,15.30
2018-10-11T18:10:06.128Z,15.20
2018-10-11T18:12:34.389Z,15.20
2018-10-11T18:15:02.737Z,15.10
2018-10-11T18:17:31.069Z,15.10
2018-10-11T18:19:59.477Z,15.00
2018-10-11T18:22:28.038Z,14.90
2018-10-11T18:24:56.374Z,15.00
2018-10-11T18:27:24.695Z,14.90
2018-10-11T18:29:53.023Z,15.00
2018-10-11T18:32:21.352Z,15.00
2018-10-11T18:34:49.683Z,15.00
2018-10-11T18:37:18.058Z,15.00
2018-10-11T18:39:46.385Z,15.10
2018-10-11T18:42:14.705Z,15.20
2018-10-11T18:44:43.088Z,15.30
2018-10-11T18:47:11.390Z,15.30
2018-10-11T18:49:39.711Z,15.30
2018-10-11T18:52:08.050Z,15.20
2018-10-11T18:54:36.377Z,15.10
2018-10-11T18:57:04.701Z,15.20
2018-10-11T18:59:33.038Z,15.20
2018-10-11T19:02:01.351Z,15.20
2018-10-11T19:04:29.677Z,15.20
2018-10-11T19:06:57.969Z,15.10
2018-10-11T19:09:26.300Z,15.00
2018-10-11T19:11:54.600Z,14.90
2018-10-11T19:14:22.933Z,14.90
2018-10-11T19:16:51.232Z,14.90
2018-10-11T19:19:19.562Z,14.90
2018-10-11T19:21:47.857Z,14.90
2018-10-11T19:24:16.174Z,14.90
2018-10-11T19:26:44.473Z,15.00
2018-10-11T19:29:12.801Z,15.00
2018-10-11T19:31:41.106Z,15.00
2018-10-11T19:34:09.525Z,15.00
2018-10-11T19:36:37.860Z,14.90
2018-10-11T19:39:09.605Z,14.90
2018-10-11T19:41:37.953Z,14.90
2018-10-11T19:44:06.257Z,14.80
2018-10-11T19:46:34.602Z,14.80
2018-10-11T19:49:02.925Z,14.80
2018-10-11T19:51:31.249Z,14.80
2018-10-11T19:53:59.557Z,14.80
2018-10-11T19:56:27.889Z,14.70
2018-10-11T19:58:57.382Z,14.70
2018-10-11T20:01:25.720Z,14.70
2018-10-11T20:03:54.090Z,14.80
2018-10-11T20:06:22.424Z,14.70
2018-10-11T20:08:50.716Z,14.70
2018-10-11T20:11:19.110Z,14.70
2018-10-11T20:13:47.386Z,14.70
2018-10-11T20:16:15.721Z,14.70
2018-10-11T20:18:44.049Z,14.60
2018-10-11T20:21:13.010Z,14.70
2018-10-11T20:23:41.341Z,14.80
2018-10-11T20:26:09.729Z,14.70
2018-10-11T20:28:38.028Z,14.60
2018-10-11T20:31:06.460Z,14.60
2018-10-11T20:33:34.766Z,14.50
2018-10-11T20:36:03.088Z,14.60
2018-10-11T20:38:31.380Z,14.60
2018-10-11T20:40:59.701Z,14.70
2018-10-11T20:43:28.024Z,14.70
2018-10-11T20:45:56.370Z,14.60
2018-10-11T20:48:24.665Z,14.60
2018-10-11T20:50:53.001Z,14.70
2018-10-11T20:53:21.297Z,14.80
2018-10-11T20:55:49.614Z,14.90
2018-10-11T20:58:17.913Z,14.80
2018-10-11T21:00:46.239Z,14.80
2018-10-11T21:03:14.542Z,14.90
2018-10-11T21:05:42.925Z,15.50
2018-10-11T21:08:11.233Z,15.70
2018-10-11T21:10:39.557Z,15.70
2018-10-11T21:13:07.849Z,15.60
2018-10-11T21:15:36.206Z,15.70
2018-10-11T21:18:04.531Z,15.30
2018-10-11T21:20:32.965Z,15.00
2018-10-11T21:23:01.177Z,14.80
2018-10-11T21:25:29.499Z,14.60
2018-10-11T21:27:57.797Z,14.60
2018-10-11T21:30:26.097Z,14.60
2018-10-11T21:32:54.418Z,14.40
2018-10-11T21:35:22.720Z,14.10
2018-10-11T21:37:51.032Z,13.90
2018-10-11T21:40:19.404Z,13.70
2018-10-11T21:42:47.721Z,13.60
2018-10-11T21:45:16.037Z,13.40
2018-10-11T21:47:44.390Z,13.40
2018-10-11T21:50:12.713Z,13.40
2018-10-11T21:52:41.065Z,13.30
2018-10-11T21:55:09.392Z,13.20
2018-10-11T21:57:37.722Z,13.10
2018-10-11T22:00:06.488Z,13.10
2018-10-11T22:02:34.865Z,13.10
2018-10-11T22:05:03.197Z,13.10
2018-10-11T22:07:31.521Z,13.10
2018-10-11T22:09:59.845Z,13.00
2018-10-11T22:12:28.150Z,12.90
2018-10-11T22:14:56.678Z,12.90
2018-10-11T22:17:24.795Z,12.90
2018-10-11T22:19:53.204Z,12.70
2018-10-11T22:22:21.516Z,12.70
2018-10-11T22:24:49.836Z,12.70
2018-10-11T22:27:18.138Z,12.70
2018-10-11T22:29:46.460Z,12.70
2018-10-11T22:32:14.784Z,12.60
2018-10-11T22:34:43.154Z,12.50
2018-10-11T22:37:11.472Z,12.60
2018-10-11T22:39:39.779Z,12.40
2018-10-11T22:42:08.100Z,12.50
2018-10-11T22:44:36.526Z,12.40
2018-10-11T22:47:04.862Z,12.40
2018-10-11T22:49:33.237Z,12.40
2018-10-11T22:52:01.550Z,12.40
2018-10-11T22:54:29.877Z,12.40
2018-10-11T22:56:58.188Z,12.30
2018-10-11T22:59:26.509Z,12.30
2018-10-11T23:01:54.816Z,12.30
2018-10-11T23:04:23.505Z,12.30
2018-10-11T23:06:51.811Z,12.10
2018-10-11T23:09:20.146Z,12.00
2018-10-11T23:11:48.456Z,11.90
2018-10-11T23:14:16.777Z,11.80
2018-10-11T23:16:45.094Z,11.70
2018-10-11T23:19:13.445Z,11.70
2018-10-11T23:21:41.769Z,11.50
2018-10-11T23:24:10.110Z,11.50
2018-10-11T23:26:38.410Z,11.40
2018-10-11T23:29:06.713Z,11.40
2018-10-11T23:31:35.031Z,11.50
2018-10-11T23:34:03.345Z,11.60
2018-10-11T23:36:31.666Z,11.70
2018-10-11T23:38:59.978Z,11.80
2018-10-11T23:41:28.293Z,11.80
2018-10-11T23:43:56.617Z,11.90
2018-10-11T23:46:24.954Z,11.80
2018-10-11T23:48:53.252Z,11.70
2018-10-11T23:51:21.574Z,11.70
2018-10-11T23:53:49.881Z,11.50
2018-10-11T23:56:18.192Z,11.50
2018-10-11T23:58:46.491Z,11.40
